Bookmark and Share
Track history (hours):
 

Diamond Orchid

Last reported at 2014-Apr-17 19:25 UTC. Time now 2014-Apr-18 16:17 UTC.
Position N 29°23' W 094°48'.

Length 144 m; draft 8 m.

Type: Tanker. MMSI: 565789000.

NotesDate/timePositionNaut miles runAvg speedWind from/ knotsBaromVisibWave heightAir tempDewpointWater temp
2014-Apr-17 19:25N 29°23' W 094°48'1011.3
2014-Apr-17 18:33N 29°31' W 094°53'9 8.6
2014-Apr-17 17:33N 29°37' W 095°01'1 0.6
2014-Apr-17 16:32N 29°37' W 095°02'0 0.0
2014-Apr-17 15:32N 29°37' W 095°02'0 0.0
2014-Apr-17 14:32N 29°37' W 095°02'0 0.0
2014-Apr-17 13:29N 29°37' W 095°02'0 0.0
2014-Apr-17 12:32N 29°37' W 095°02'0 0.0
2014-Apr-17 11:32N 29°37' W 095°02'0 0.0
2014-Apr-17 10:32N 29°37' W 095°02'0 0.0
2014-Apr-17 09:33N 29°37' W 095°02'0 0.0
2014-Apr-17 08:33N 29°37' W 095°02'0 0.0
2014-Apr-17 07:33N 29°37' W 095°02'0 0.0
2014-Apr-17 06:33N 29°37' W 095°02'0 0.0
2014-Apr-17 05:29N 29°37' W 095°02'0 0.0
2014-Apr-17 04:32N 29°37' W 095°02'0 0.0
2014-Apr-17 03:33N 29°37' W 095°02'0 0.0
2014-Apr-17 02:33N 29°37' W 095°02'0 0.0
2014-Apr-17 01:32N 29°37' W 095°02'0 0.0
2014-Apr-17 00:32N 29°37' W 095°02'0 0.0
2014-Apr-16 23:33N 29°37' W 095°02'0 0.0
2014-Apr-16 22:32N 29°37' W 095°02'0 0.0
2014-Apr-16 21:33N 29°37' W 095°02'0 0.0
2014-Apr-16 20:32N 29°37' W 095°02'0 0.0
2014-Apr-16 19:32N 29°37' W 095°02'0 0.0
2014-Apr-16 18:29N 29°37' W 095°02'0 0.0
2014-Apr-16 17:32N 29°37' W 095°02'0 0.0
2014-Apr-16 16:33N 29°37' W 095°02'0 0.0
2014-Apr-16 15:32N 29°37' W 095°02'0 0.0
2014-Apr-16 14:32N 29°37' W 095°02'0 0.0
2014-Apr-16 13:30N 29°37' W 095°02'0 0.0
2014-Apr-16 12:32N 29°37' W 095°02'0 0.0
2014-Apr-16 11:33N 29°37' W 095°02'0 0.0
2014-Apr-16 10:32N 29°37' W 095°02'0 0.0
2014-Apr-16 09:32N 29°37' W 095°02'0 0.0
2014-Apr-16 08:32N 29°37' W 095°02'0 0.0
2014-Apr-16 07:32N 29°37' W 095°02'0 0.0
2014-Apr-16 06:33N 29°37' W 095°02'0 0.0
2014-Apr-16 05:32N 29°37' W 095°02'2 1.9
2014-Apr-16 04:33N 29°37' W 094°59'1211.9
2014-Apr-16 03:33N 29°28' W 094°51'  
2014-Apr-08 00:32N 29°23' W 094°49'1110.9
2014-Apr-07 23:33N 29°33' W 094°54'7 7.4
2014-Apr-07 22:32N 29°37' W 095°02'0 0.0
2014-Apr-07 21:33N 29°37' W 095°02'0 0.0
2014-Apr-07 20:33N 29°37' W 095°02'0 0.0
2014-Apr-07 19:32N 29°37' W 095°02'  

Dump ship's entire track history

sailing weather and tide predictions

Diamond Orchid — 9VNH4 — position and weather